sensor_id;sensor_type;location;lat;lon;timestamp;P1;durP1;ratioP1;P2;durP2;ratioP2
24381;SDS011;12502;50.678;7.172;2022-10-04T00:02:49;17.20;;;9.85;;
24381;SDS011;12502;50.678;7.172;2022-10-04T00:07:55;21.65;;;11.10;;
24381;SDS011;12502;50.678;7.172;2022-10-04T00:12:59;23.55;;;14.05;;
24381;SDS011;12502;50.678;7.172;2022-10-04T00:28:42;29.15;;;13.13;;
24381;SDS011;12502;50.678;7.172;2022-10-04T00:44:04;21.50;;;10.60;;
24381;SDS011;12502;50.678;7.172;2022-10-04T00:49:10;28.08;;;10.32;;
24381;SDS011;12502;50.678;7.172;2022-10-04T00:54:16;21.83;;;11.40;;
24381;SDS011;12502;50.678;7.172;2022-10-04T01:09:53;22.58;;;11.93;;
24381;SDS011;12502;50.678;7.172;2022-10-04T01:15:59;35.45;;;15.20;;
24381;SDS011;12502;50.678;7.172;2022-10-04T01:20:31;24.45;;;13.88;;
24381;SDS011;12502;50.678;7.172;2022-10-04T01:25:42;29.58;;;14.95;;
24381;SDS011;12502;50.678;7.172;2022-10-04T01:30:45;28.80;;;16.17;;
24381;SDS011;12502;50.678;7.172;2022-10-04T01:35:47;33.95;;;16.92;;
24381;SDS011;12502;50.678;7.172;2022-10-04T01:40:53;33.78;;;18.23;;
24381;SDS011;12502;50.678;7.172;2022-10-04T01:45:59;34.53;;;16.48;;
24381;SDS011;12502;50.678;7.172;2022-10-04T01:51:12;33.83;;;16.52;;
24381;SDS011;12502;50.678;7.172;2022-10-04T01:56:22;41.95;;;16.55;;
24381;SDS011;12502;50.678;7.172;2022-10-04T02:07:15;32.65;;;16.25;;
24381;SDS011;12502;50.678;7.172;2022-10-04T02:12:17;28.73;;;14.60;;
24381;SDS011;12502;50.678;7.172;2022-10-04T02:17:21;25.55;;;14.05;;
24381;SDS011;12502;50.678;7.172;2022-10-04T02:22:25;26.77;;;14.77;;
24381;SDS011;12502;50.678;7.172;2022-10-04T02:27:28;32.30;;;18.17;;
24381;SDS011;12502;50.678;7.172;2022-10-04T02:32:31;34.83;;;16.90;;
24381;SDS011;12502;50.678;7.172;2022-10-04T02:37:54;44.25;;;16.42;;
24381;SDS011;12502;50.678;7.172;2022-10-04T02:43:18;62.53;;;16.77;;
24381;SDS011;12502;50.678;7.172;2022-10-04T02:48:34;54.20;;;18.65;;
24381;SDS011;12502;50.678;7.172;2022-10-04T02:59:05;36.20;;;17.50;;
24381;SDS011;12502;50.678;7.172;2022-10-04T03:04:09;29.43;;;15.90;;
24381;SDS011;12502;50.678;7.172;2022-10-04T03:09:16;28.52;;;15.95;;
24381;SDS011;12502;50.678;7.172;2022-10-04T03:14:22;32.55;;;17.00;;
24381;SDS011;12502;50.678;7.172;2022-10-04T03:19:30;37.40;;;19.10;;
24381;SDS011;12502;50.678;7.172;2022-10-04T03:24:35;36.92;;;17.48;;
24381;SDS011;12502;50.678;7.172;2022-10-04T03:29:53;34.35;;;19.10;;
24381;SDS011;12502;50.678;7.172;2022-10-04T03:35:01;42.00;;;18.98;;
24381;SDS011;12502;50.678;7.172;2022-10-04T03:40:08;35.22;;;18.33;;
24381;SDS011;12502;50.678;7.172;2022-10-04T03:45:16;30.65;;;17.40;;
24381;SDS011;12502;50.678;7.172;2022-10-04T03:50:23;35.42;;;17.42;;
24381;SDS011;12502;50.678;7.172;2022-10-04T03:55:31;43.10;;;20.35;;
24381;SDS011;12502;50.678;7.172;2022-10-04T04:06:14;34.60;;;19.35;;
24381;SDS011;12502;50.678;7.172;2022-10-04T04:11:22;35.33;;;17.83;;
24381;SDS011;12502;50.678;7.172;2022-10-04T04:16:36;31.88;;;19.83;;
24381;SDS011;12502;50.678;7.172;2022-10-04T04:21:38;36.42;;;18.98;;
24381;SDS011;12502;50.678;7.172;2022-10-04T04:26:46;35.60;;;18.83;;
24381;SDS011;12502;50.678;7.172;2022-10-04T04:32:14;35.25;;;19.10;;
24381;SDS011;12502;50.678;7.172;2022-10-04T04:37:35;34.70;;;18.73;;
24381;SDS011;12502;50.678;7.172;2022-10-04T04:42:41;36.60;;;20.25;;
24381;SDS011;12502;50.678;7.172;2022-10-04T04:47:52;40.92;;;20.00;;
24381;SDS011;12502;50.678;7.172;2022-10-04T04:58:38;29.00;;;17.00;;
24381;SDS011;12502;50.678;7.172;2022-10-04T05:03:44;31.48;;;15.88;;
24381;SDS011;12502;50.678;7.172;2022-10-04T05:09:20;30.27;;;17.10;;
24381;SDS011;12502;50.678;7.172;2022-10-04T05:19:47;29.00;;;17.02;;
24381;SDS011;12502;50.678;7.172;2022-10-04T05:24:51;30.83;;;16.80;;
24381;SDS011;12502;50.678;7.172;2022-10-04T05:41:25;28.45;;;15.95;;
24381;SDS011;12502;50.678;7.172;2022-10-04T05:52:13;29.23;;;16.98;;
24381;SDS011;12502;50.678;7.172;2022-10-04T06:25:56;26.98;;;17.02;;
24381;SDS011;12502;50.678;7.172;2022-10-04T06:42:22;25.02;;;14.23;;
24381;SDS011;12502;50.678;7.172;2022-10-04T07:15:27;18.48;;;10.27;;
24381;SDS011;12502;50.678;7.172;2022-10-04T07:20:34;14.20;;;10.32;;
24381;SDS011;12502;50.678;7.172;2022-10-04T07:25:44;17.45;;;11.05;;
24381;SDS011;12502;50.678;7.172;2022-10-04T07:31:03;17.35;;;11.88;;
24381;SDS011;12502;50.678;7.172;2022-10-04T07:36:38;21.35;;;11.15;;
24381;SDS011;12502;50.678;7.172;2022-10-04T07:46:54;17.58;;;11.05;;
24381;SDS011;12502;50.678;7.172;2022-10-04T08:13:48;13.25;;;8.90;;
24381;SDS011;12502;50.678;7.172;2022-10-04T08:30:14;11.90;;;7.35;;
24381;SDS011;12502;50.678;7.172;2022-10-04T08:46:42;12.55;;;7.70;;
24381;SDS011;12502;50.678;7.172;2022-10-04T09:09:28;10.25;;;7.05;;
24381;SDS011;12502;50.678;7.172;2022-10-04T09:30:21;11.88;;;6.35;;
24381;SDS011;12502;50.678;7.172;2022-10-04T09:35:39;8.35;;;5.90;;
24381;SDS011;12502;50.678;7.172;2022-10-04T09:41:00;11.52;;;5.72;;
24381;SDS011;12502;50.678;7.172;2022-10-04T10:08:35;11.60;;;5.03;;
24381;SDS011;12502;50.678;7.172;2022-10-04T10:14:00;10.20;;;5.38;;
24381;SDS011;12502;50.678;7.172;2022-10-04T10:24:36;10.63;;;5.28;;
24381;SDS011;12502;50.678;7.172;2022-10-04T10:36:34;7.95;;;4.70;;
24381;SDS011;12502;50.678;7.172;2022-10-04T11:14:22;7.22;;;3.90;;
24381;SDS011;12502;50.678;7.172;2022-10-04T11:30:17;5.77;;;3.90;;
24381;SDS011;12502;50.678;7.172;2022-10-04T11:41:05;7.40;;;4.75;;
24381;SDS011;12502;50.678;7.172;2022-10-04T11:46:36;8.32;;;4.20;;
24381;SDS011;12502;50.678;7.172;2022-10-04T11:57:24;7.70;;;4.00;;
24381;SDS011;12502;50.678;7.172;2022-10-04T12:08:38;7.10;;;4.10;;
24381;SDS011;12502;50.678;7.172;2022-10-04T12:13:57;11.02;;;3.95;;
24381;SDS011;12502;50.678;7.172;2022-10-04T12:19:28;8.82;;;4.30;;
24381;SDS011;12502;50.678;7.172;2022-10-04T12:25:00;8.07;;;4.50;;
24381;SDS011;12502;50.678;7.172;2022-10-04T12:36:07;8.15;;;4.22;;
24381;SDS011;12502;50.678;7.172;2022-10-04T12:41:31;7.93;;;4.45;;
24381;SDS011;12502;50.678;7.172;2022-10-04T12:46:55;7.28;;;4.30;;
24381;SDS011;12502;50.678;7.172;2022-10-04T12:52:15;9.48;;;5.57;;
24381;SDS011;12502;50.678;7.172;2022-10-04T12:58:03;7.40;;;5.20;;
24381;SDS011;12502;50.678;7.172;2022-10-04T13:24:48;5.35;;;3.60;;
24381;SDS011;12502;50.678;7.172;2022-10-04T13:57:41;6.53;;;3.63;;
24381;SDS011;12502;50.678;7.172;2022-10-04T14:02:56;9.30;;;3.47;;
24381;SDS011;12502;50.678;7.172;2022-10-04T14:40:29;8.88;;;3.60;;
24381;SDS011;12502;50.678;7.172;2022-10-04T15:07:02;5.35;;;3.58;;
24381;SDS011;12502;50.678;7.172;2022-10-04T15:18:20;5.35;;;2.97;;
24381;SDS011;12502;50.678;7.172;2022-10-04T15:23:42;6.70;;;2.88;;
24381;SDS011;12502;50.678;7.172;2022-10-04T15:38:58;8.70;;;3.15;;
24381;SDS011;12502;50.678;7.172;2022-10-04T16:10:29;6.57;;;3.55;;
24381;SDS011;12502;50.678;7.172;2022-10-04T16:15:39;7.43;;;3.20;;
24381;SDS011;12502;50.678;7.172;2022-10-04T16:20:49;5.80;;;3.20;;
24381;SDS011;12502;50.678;7.172;2022-10-04T16:26:04;5.40;;;2.88;;
24381;SDS011;12502;50.678;7.172;2022-10-04T16:36:21;5.82;;;3.20;;
24381;SDS011;12502;50.678;7.172;2022-10-04T16:41:45;10.00;;;3.13;;
24381;SDS011;12502;50.678;7.172;2022-10-04T16:52:59;6.75;;;4.10;;
24381;SDS011;12502;50.678;7.172;2022-10-04T17:03:29;7.18;;;3.58;;
24381;SDS011;12502;50.678;7.172;2022-10-04T17:13:53;7.22;;;3.60;;
24381;SDS011;12502;50.678;7.172;2022-10-04T17:29:43;6.03;;;3.20;;
24381;SDS011;12502;50.678;7.172;2022-10-04T17:56:24;5.57;;;3.80;;
24381;SDS011;12502;50.678;7.172;2022-10-04T18:02:42;6.57;;;4.03;;
24381;SDS011;12502;50.678;7.172;2022-10-04T18:07:16;8.70;;;4.43;;
24381;SDS011;12502;50.678;7.172;2022-10-04T18:12:30;7.22;;;4.30;;
24381;SDS011;12502;50.678;7.172;2022-10-04T18:17:42;7.53;;;4.60;;
24381;SDS011;12502;50.678;7.172;2022-10-04T18:22:49;6.50;;;4.50;;
24381;SDS011;12502;50.678;7.172;2022-10-04T18:28:10;13.63;;;5.13;;
24381;SDS011;12502;50.678;7.172;2022-10-04T18:33:21;12.07;;;5.18;;
24381;SDS011;12502;50.678;7.172;2022-10-04T18:38:27;13.18;;;4.70;;
24381;SDS011;12502;50.678;7.172;2022-10-04T18:43:34;10.23;;;5.10;;
24381;SDS011;12502;50.678;7.172;2022-10-04T18:48:58;12.00;;;5.03;;
24381;SDS011;12502;50.678;7.172;2022-10-04T19:15:34;7.93;;;5.22;;
24381;SDS011;12502;50.678;7.172;2022-10-04T19:26:49;8.48;;;5.68;;
24381;SDS011;12502;50.678;7.172;2022-10-04T19:31:59;10.60;;;5.30;;
24381;SDS011;12502;50.678;7.172;2022-10-04T19:37:14;12.35;;;6.47;;
24381;SDS011;12502;50.678;7.172;2022-10-04T19:42:41;15.15;;;6.43;;
24381;SDS011;12502;50.678;7.172;2022-10-04T19:47:54;11.43;;;6.05;;
24381;SDS011;12502;50.678;7.172;2022-10-04T20:03:28;11.50;;;7.22;;
24381;SDS011;12502;50.678;7.172;2022-10-04T20:19:11;17.08;;;7.32;;
24381;SDS011;12502;50.678;7.172;2022-10-04T20:25:02;17.95;;;7.15;;
24381;SDS011;12502;50.678;7.172;2022-10-04T20:34:52;10.18;;;6.43;;
24381;SDS011;12502;50.678;7.172;2022-10-04T20:39:55;12.90;;;6.60;;
24381;SDS011;12502;50.678;7.172;2022-10-04T20:55:16;20.63;;;7.32;;
24381;SDS011;12502;50.678;7.172;2022-10-04T21:00:28;13.73;;;7.43;;
24381;SDS011;12502;50.678;7.172;2022-10-04T21:05:35;17.92;;;7.80;;
24381;SDS011;12502;50.678;7.172;2022-10-04T21:10:37;21.27;;;7.72;;
24381;SDS011;12502;50.678;7.172;2022-10-04T21:15:53;12.02;;;8.10;;
24381;SDS011;12502;50.678;7.172;2022-10-04T21:20:55;15.40;;;7.43;;
24381;SDS011;12502;50.678;7.172;2022-10-04T21:31:21;12.88;;;7.90;;
24381;SDS011;12502;50.678;7.172;2022-10-04T21:36:23;10.65;;;8.07;;
24381;SDS011;12502;50.678;7.172;2022-10-04T21:41:25;18.50;;;8.55;;
24381;SDS011;12502;50.678;7.172;2022-10-04T21:46:26;18.88;;;9.38;;
24381;SDS011;12502;50.678;7.172;2022-10-04T21:51:28;13.40;;;8.48;;
24381;SDS011;12502;50.678;7.172;2022-10-04T21:56:36;16.10;;;9.43;;
24381;SDS011;12502;50.678;7.172;2022-10-04T22:01:37;15.70;;;9.30;;
24381;SDS011;12502;50.678;7.172;2022-10-04T22:06:39;14.93;;;10.30;;
24381;SDS011;12502;50.678;7.172;2022-10-04T22:11:41;20.08;;;9.63;;
24381;SDS011;12502;50.678;7.172;2022-10-04T22:16:43;15.70;;;9.07;;
24381;SDS011;12502;50.678;7.172;2022-10-04T22:21:45;12.82;;;9.50;;
24381;SDS011;12502;50.678;7.172;2022-10-04T22:26:47;18.30;;;9.65;;
24381;SDS011;12502;50.678;7.172;2022-10-04T22:31:50;10.93;;;8.93;;
24381;SDS011;12502;50.678;7.172;2022-10-04T22:36:53;18.63;;;9.23;;
24381;SDS011;12502;50.678;7.172;2022-10-04T22:41:56;17.30;;;9.77;;
24381;SDS011;12502;50.678;7.172;2022-10-04T22:47:00;17.08;;;10.15;;
24381;SDS011;12502;50.678;7.172;2022-10-04T22:52:05;15.35;;;9.32;;
24381;SDS011;12502;50.678;7.172;2022-10-04T22:57:16;13.35;;;9.85;;
24381;SDS011;12502;50.678;7.172;2022-10-04T23:02:19;13.77;;;9.27;;
24381;SDS011;12502;50.678;7.172;2022-10-04T23:07:28;21.02;;;9.63;;
24381;SDS011;12502;50.678;7.172;2022-10-04T23:12:36;24.95;;;10.45;;
24381;SDS011;12502;50.678;7.172;2022-10-04T23:17:39;14.88;;;10.10;;
24381;SDS011;12502;50.678;7.172;2022-10-04T23:22:44;18.80;;;11.18;;
24381;SDS011;12502;50.678;7.172;2022-10-04T23:27:48;19.15;;;11.02;;
24381;SDS011;12502;50.678;7.172;2022-10-04T23:32:51;22.70;;;11.48;;
24381;SDS011;12502;50.678;7.172;2022-10-04T23:37:56;15.63;;;10.48;;
24381;SDS011;12502;50.678;7.172;2022-10-04T23:42:58;19.52;;;11.00;;
24381;SDS011;12502;50.678;7.172;2022-10-04T23:48:04;15.85;;;10.75;;
24381;SDS011;12502;50.678;7.172;2022-10-04T23:53:26;21.38;;;11.25;;
24381;SDS011;12502;50.678;7.172;2022-10-04T23:58:34;15.73;;;11.00;;
